sensor_id;sensor_type;location;lat;lon;timestamp;P1;durP1;ratioP1;P2;durP2;ratioP2
21601;SDS011;10963;50.934;4.668;2022-11-30T00:01:15;50.30;;;22.93;;
21601;SDS011;10963;50.934;4.668;2022-11-30T00:03:43;56.23;;;23.50;;
21601;SDS011;10963;50.934;4.668;2022-11-30T00:06:13;50.20;;;22.37;;
21601;SDS011;10963;50.934;4.668;2022-11-30T00:08:41;56.00;;;22.07;;
21601;SDS011;10963;50.934;4.668;2022-11-30T00:11:12;55.13;;;22.80;;
21601;SDS011;10963;50.934;4.668;2022-11-30T00:13:45;55.30;;;24.70;;
21601;SDS011;10963;50.934;4.668;2022-11-30T00:16:17;49.63;;;21.73;;
21601;SDS011;10963;50.934;4.668;2022-11-30T00:18:46;53.43;;;21.93;;
21601;SDS011;10963;50.934;4.668;2022-11-30T00:21:13;49.93;;;21.50;;
21601;SDS011;10963;50.934;4.668;2022-11-30T00:23:42;43.23;;;20.47;;
21601;SDS011;10963;50.934;4.668;2022-11-30T00:26:13;41.60;;;20.53;;
21601;SDS011;10963;50.934;4.668;2022-11-30T00:28:41;42.37;;;19.73;;
21601;SDS011;10963;50.934;4.668;2022-11-30T00:31:12;40.67;;;19.90;;
21601;SDS011;10963;50.934;4.668;2022-11-30T00:33:40;48.57;;;20.20;;
21601;SDS011;10963;50.934;4.668;2022-11-30T00:36:09;53.40;;;21.67;;
21601;SDS011;10963;50.934;4.668;2022-11-30T00:38:39;53.47;;;22.47;;
21601;SDS011;10963;50.934;4.668;2022-11-30T00:41:12;54.13;;;23.30;;
21601;SDS011;10963;50.934;4.668;2022-11-30T00:43:40;58.97;;;23.50;;
21601;SDS011;10963;50.934;4.668;2022-11-30T00:46:09;61.90;;;23.43;;
21601;SDS011;10963;50.934;4.668;2022-11-30T00:48:37;64.07;;;23.90;;
21601;SDS011;10963;50.934;4.668;2022-11-30T00:51:04;55.03;;;23.07;;
21601;SDS011;10963;50.934;4.668;2022-11-30T00:53:33;72.17;;;24.83;;
21601;SDS011;10963;50.934;4.668;2022-11-30T00:56:02;67.17;;;22.43;;
21601;SDS011;10963;50.934;4.668;2022-11-30T00:58:31;60.67;;;21.97;;
21601;SDS011;10963;50.934;4.668;2022-11-30T01:00:59;69.33;;;22.43;;
21601;SDS011;10963;50.934;4.668;2022-11-30T01:03:30;87.00;;;24.30;;
21601;SDS011;10963;50.934;4.668;2022-11-30T01:06:00;65.43;;;22.00;;
21601;SDS011;10963;50.934;4.668;2022-11-30T01:08:30;96.63;;;26.20;;
21601;SDS011;10963;50.934;4.668;2022-11-30T01:11:02;75.77;;;23.47;;
21601;SDS011;10963;50.934;4.668;2022-11-30T01:13:33;75.67;;;24.17;;
21601;SDS011;10963;50.934;4.668;2022-11-30T01:16:06;77.13;;;23.80;;
21601;SDS011;10963;50.934;4.668;2022-11-30T01:18:37;78.03;;;24.93;;
21601;SDS011;10963;50.934;4.668;2022-11-30T01:21:07;86.53;;;23.90;;
21601;SDS011;10963;50.934;4.668;2022-11-30T01:23:40;68.37;;;24.67;;
21601;SDS011;10963;50.934;4.668;2022-11-30T01:26:08;73.03;;;24.03;;
21601;SDS011;10963;50.934;4.668;2022-11-30T01:28:39;81.70;;;25.67;;
21601;SDS011;10963;50.934;4.668;2022-11-30T01:31:13;72.30;;;25.30;;
21601;SDS011;10963;50.934;4.668;2022-11-30T01:33:41;95.27;;;26.80;;
21601;SDS011;10963;50.934;4.668;2022-11-30T01:36:14;75.70;;;25.80;;
21601;SDS011;10963;50.934;4.668;2022-11-30T01:38:43;73.20;;;25.90;;
21601;SDS011;10963;50.934;4.668;2022-11-30T01:41:11;79.00;;;24.83;;
21601;SDS011;10963;50.934;4.668;2022-11-30T01:49:34;100.37;;;25.83;;
21601;SDS011;10963;50.934;4.668;2022-11-30T01:52:14;115.63;;;27.63;;
21601;SDS011;10963;50.934;4.668;2022-11-30T01:54:49;101.50;;;26.60;;
21601;SDS011;10963;50.934;4.668;2022-11-30T01:57:38;87.07;;;25.20;;
21601;SDS011;10963;50.934;4.668;2022-11-30T02:00:10;94.73;;;23.23;;
21601;SDS011;10963;50.934;4.668;2022-11-30T02:05:31;119.53;;;25.67;;
21601;SDS011;10963;50.934;4.668;2022-11-30T02:08:00;98.93;;;25.57;;
21601;SDS011;10963;50.934;4.668;2022-11-30T02:10:30;74.70;;;24.20;;
21601;SDS011;10963;50.934;4.668;2022-11-30T02:18:20;93.43;;;24.97;;
21601;SDS011;10963;50.934;4.668;2022-11-30T02:21:03;64.50;;;22.40;;
21601;SDS011;10963;50.934;4.668;2022-11-30T02:23:58;93.07;;;24.10;;
21601;SDS011;10963;50.934;4.668;2022-11-30T02:29:13;89.83;;;24.43;;
21601;SDS011;10963;50.934;4.668;2022-11-30T02:31:58;92.70;;;24.73;;
21601;SDS011;10963;50.934;4.668;2022-11-30T02:34:36;86.77;;;24.40;;
21601;SDS011;10963;50.934;4.668;2022-11-30T02:37:05;88.53;;;24.73;;
21601;SDS011;10963;50.934;4.668;2022-11-30T02:39:33;85.50;;;24.43;;
21601;SDS011;10963;50.934;4.668;2022-11-30T02:42:02;79.40;;;23.60;;
21601;SDS011;10963;50.934;4.668;2022-11-30T02:44:28;93.53;;;24.03;;
21601;SDS011;10963;50.934;4.668;2022-11-30T02:52:13;71.17;;;22.10;;
21601;SDS011;10963;50.934;4.668;2022-11-30T02:54:45;101.13;;;22.27;;
21601;SDS011;10963;50.934;4.668;2022-11-30T02:57:11;91.73;;;23.30;;
21601;SDS011;10963;50.934;4.668;2022-11-30T02:59:40;66.73;;;20.53;;
21601;SDS011;10963;50.934;4.668;2022-11-30T03:02:10;76.10;;;19.97;;
21601;SDS011;10963;50.934;4.668;2022-11-30T03:04:38;84.33;;;21.53;;
21601;SDS011;10963;50.934;4.668;2022-11-30T03:07:07;67.60;;;20.63;;
21601;SDS011;10963;50.934;4.668;2022-11-30T03:09:32;78.30;;;23.17;;
21601;SDS011;10963;50.934;4.668;2022-11-30T03:11:58;64.63;;;21.40;;
21601;SDS011;10963;50.934;4.668;2022-11-30T03:14:26;73.57;;;20.40;;
21601;SDS011;10963;50.934;4.668;2022-11-30T03:16:52;65.63;;;20.10;;
21601;SDS011;10963;50.934;4.668;2022-11-30T03:19:21;64.10;;;19.80;;
21601;SDS011;10963;50.934;4.668;2022-11-30T03:21:47;70.27;;;20.63;;
21601;SDS011;10963;50.934;4.668;2022-11-30T03:24:12;72.53;;;20.73;;
21601;SDS011;10963;50.934;4.668;2022-11-30T03:26:40;60.17;;;20.57;;
21601;SDS011;10963;50.934;4.668;2022-11-30T03:29:09;90.00;;;20.93;;
21601;SDS011;10963;50.934;4.668;2022-11-30T03:31:37;66.37;;;19.70;;
21601;SDS011;10963;50.934;4.668;2022-11-30T03:34:03;67.73;;;19.73;;
21601;SDS011;10963;50.934;4.668;2022-11-30T03:36:31;70.70;;;20.23;;
21601;SDS011;10963;50.934;4.668;2022-11-30T03:38:59;60.87;;;18.10;;
21601;SDS011;10963;50.934;4.668;2022-11-30T03:41:27;63.33;;;19.20;;
21601;SDS011;10963;50.934;4.668;2022-11-30T03:43:55;79.53;;;22.00;;
21601;SDS011;10963;50.934;4.668;2022-11-30T03:46:21;76.63;;;21.30;;
21601;SDS011;10963;50.934;4.668;2022-11-30T03:48:47;57.47;;;18.43;;
21601;SDS011;10963;50.934;4.668;2022-11-30T03:51:19;70.30;;;20.10;;
21601;SDS011;10963;50.934;4.668;2022-11-30T03:53:50;66.13;;;19.87;;
21601;SDS011;10963;50.934;4.668;2022-11-30T03:56:18;68.87;;;19.93;;
21601;SDS011;10963;50.934;4.668;2022-11-30T03:58:44;70.70;;;21.47;;
21601;SDS011;10963;50.934;4.668;2022-11-30T04:01:13;77.57;;;21.77;;
21601;SDS011;10963;50.934;4.668;2022-11-30T04:03:41;76.40;;;19.87;;
21601;SDS011;10963;50.934;4.668;2022-11-30T04:06:10;88.20;;;21.20;;
21601;SDS011;10963;50.934;4.668;2022-11-30T04:08:39;76.13;;;20.70;;
21601;SDS011;10963;50.934;4.668;2022-11-30T04:11:05;83.13;;;21.03;;
21601;SDS011;10963;50.934;4.668;2022-11-30T04:13:34;63.00;;;20.10;;
21601;SDS011;10963;50.934;4.668;2022-11-30T04:16:08;65.27;;;20.47;;
21601;SDS011;10963;50.934;4.668;2022-11-30T04:18:37;86.97;;;21.20;;
21601;SDS011;10963;50.934;4.668;2022-11-30T04:21:05;74.50;;;19.93;;
21601;SDS011;10963;50.934;4.668;2022-11-30T04:23:33;73.10;;;21.50;;
21601;SDS011;10963;50.934;4.668;2022-11-30T04:26:05;55.67;;;20.37;;
21601;SDS011;10963;50.934;4.668;2022-11-30T04:28:33;55.57;;;18.53;;
21601;SDS011;10963;50.934;4.668;2022-11-30T04:30:59;65.97;;;19.67;;
21601;SDS011;10963;50.934;4.668;2022-11-30T04:33:26;62.47;;;19.80;;
21601;SDS011;10963;50.934;4.668;2022-11-30T04:35:56;59.53;;;20.13;;
21601;SDS011;10963;50.934;4.668;2022-11-30T04:38:25;64.47;;;19.60;;
21601;SDS011;10963;50.934;4.668;2022-11-30T04:40:54;60.50;;;18.90;;
21601;SDS011;10963;50.934;4.668;2022-11-30T04:43:20;54.27;;;20.70;;
21601;SDS011;10963;50.934;4.668;2022-11-30T04:45:48;55.13;;;19.10;;
21601;SDS011;10963;50.934;4.668;2022-11-30T04:48:17;58.00;;;19.73;;
21601;SDS011;10963;50.934;4.668;2022-11-30T04:50:43;71.77;;;21.17;;
21601;SDS011;10963;50.934;4.668;2022-11-30T04:53:09;58.53;;;21.43;;
21601;SDS011;10963;50.934;4.668;2022-11-30T04:55:38;63.03;;;21.27;;
21601;SDS011;10963;50.934;4.668;2022-11-30T04:58:04;66.57;;;20.13;;
21601;SDS011;10963;50.934;4.668;2022-11-30T05:00:33;71.00;;;21.47;;
21601;SDS011;10963;50.934;4.668;2022-11-30T05:03:04;75.47;;;22.57;;
21601;SDS011;10963;50.934;4.668;2022-11-30T05:05:29;74.77;;;22.93;;
21601;SDS011;10963;50.934;4.668;2022-11-30T05:07:56;73.70;;;22.83;;
21601;SDS011;10963;50.934;4.668;2022-11-30T05:10:23;74.23;;;23.40;;
21601;SDS011;10963;50.934;4.668;2022-11-30T05:12:51;72.77;;;20.83;;
21601;SDS011;10963;50.934;4.668;2022-11-30T05:15:20;73.47;;;21.17;;
21601;SDS011;10963;50.934;4.668;2022-11-30T05:17:46;74.70;;;21.73;;
21601;SDS011;10963;50.934;4.668;2022-11-30T05:20:15;92.77;;;24.30;;
21601;SDS011;10963;50.934;4.668;2022-11-30T05:22:43;96.27;;;24.10;;
21601;SDS011;10963;50.934;4.668;2022-11-30T05:25:12;82.43;;;22.10;;
21601;SDS011;10963;50.934;4.668;2022-11-30T05:27:38;92.43;;;22.40;;
21601;SDS011;10963;50.934;4.668;2022-11-30T05:30:06;87.50;;;22.07;;
21601;SDS011;10963;50.934;4.668;2022-11-30T05:32:34;90.10;;;22.67;;
21601;SDS011;10963;50.934;4.668;2022-11-30T05:35:00;85.10;;;23.13;;
21601;SDS011;10963;50.934;4.668;2022-11-30T05:37:28;68.80;;;21.40;;
21601;SDS011;10963;50.934;4.668;2022-11-30T05:39:53;71.73;;;22.10;;
21601;SDS011;10963;50.934;4.668;2022-11-30T05:42:21;64.03;;;21.30;;
21601;SDS011;10963;50.934;4.668;2022-11-30T05:44:49;82.93;;;22.93;;
21601;SDS011;10963;50.934;4.668;2022-11-30T05:47:16;77.57;;;21.83;;
21601;SDS011;10963;50.934;4.668;2022-11-30T05:49:42;81.07;;;23.20;;
21601;SDS011;10963;50.934;4.668;2022-11-30T05:52:07;146.03;;;26.83;;
21601;SDS011;10963;50.934;4.668;2022-11-30T05:54:35;93.63;;;24.83;;
21601;SDS011;10963;50.934;4.668;2022-11-30T05:57:03;95.87;;;23.40;;
21601;SDS011;10963;50.934;4.668;2022-11-30T05:59:29;133.87;;;25.73;;
21601;SDS011;10963;50.934;4.668;2022-11-30T06:01:59;87.93;;;23.73;;
21601;SDS011;10963;50.934;4.668;2022-11-30T06:04:25;99.43;;;24.80;;
21601;SDS011;10963;50.934;4.668;2022-11-30T06:06:51;86.27;;;24.80;;
21601;SDS011;10963;50.934;4.668;2022-11-30T06:09:20;78.30;;;23.97;;
21601;SDS011;10963;50.934;4.668;2022-11-30T06:11:49;92.77;;;24.57;;
21601;SDS011;10963;50.934;4.668;2022-11-30T06:14:20;81.43;;;24.17;;
21601;SDS011;10963;50.934;4.668;2022-11-30T06:16:46;80.20;;;23.43;;
21601;SDS011;10963;50.934;4.668;2022-11-30T06:19:11;72.00;;;23.47;;
21601;SDS011;10963;50.934;4.668;2022-11-30T06:21:38;83.37;;;24.47;;
21601;SDS011;10963;50.934;4.668;2022-11-30T06:24:03;68.10;;;21.97;;
21601;SDS011;10963;50.934;4.668;2022-11-30T06:26:29;67.53;;;21.47;;
21601;SDS011;10963;50.934;4.668;2022-11-30T06:28:55;84.27;;;23.07;;
21601;SDS011;10963;50.934;4.668;2022-11-30T06:31:23;78.13;;;22.67;;
21601;SDS011;10963;50.934;4.668;2022-11-30T06:33:49;80.57;;;22.93;;
21601;SDS011;10963;50.934;4.668;2022-11-30T06:36:21;79.50;;;22.87;;
21601;SDS011;10963;50.934;4.668;2022-11-30T06:38:53;79.80;;;22.83;;
21601;SDS011;10963;50.934;4.668;2022-11-30T06:41:22;94.97;;;24.77;;
21601;SDS011;10963;50.934;4.668;2022-11-30T06:43:50;103.40;;;24.60;;
21601;SDS011;10963;50.934;4.668;2022-11-30T06:46:18;118.40;;;24.57;;
21601;SDS011;10963;50.934;4.668;2022-11-30T06:48:49;105.53;;;25.17;;
21601;SDS011;10963;50.934;4.668;2022-11-30T06:51:15;91.90;;;22.47;;
21601;SDS011;10963;50.934;4.668;2022-11-30T06:53:44;88.37;;;23.37;;
21601;SDS011;10963;50.934;4.668;2022-11-30T06:56:11;111.07;;;23.97;;
21601;SDS011;10963;50.934;4.668;2022-11-30T06:58:45;97.23;;;23.50;;
21601;SDS011;10963;50.934;4.668;2022-11-30T07:01:13;107.63;;;23.40;;
21601;SDS011;10963;50.934;4.668;2022-11-30T07:03:40;159.97;;;25.07;;
21601;SDS011;10963;50.934;4.668;2022-11-30T07:06:12;114.70;;;23.33;;
21601;SDS011;10963;50.934;4.668;2022-11-30T07:08:43;131.93;;;23.20;;
21601;SDS011;10963;50.934;4.668;2022-11-30T07:11:09;111.00;;;23.63;;
21601;SDS011;10963;50.934;4.668;2022-11-30T07:13:36;115.03;;;22.87;;
21601;SDS011;10963;50.934;4.668;2022-11-30T07:16:05;163.70;;;28.40;;
21601;SDS011;10963;50.934;4.668;2022-11-30T07:18:32;153.50;;;27.63;;
21601;SDS011;10963;50.934;4.668;2022-11-30T07:21:02;108.03;;;24.30;;
21601;SDS011;10963;50.934;4.668;2022-11-30T07:23:29;125.83;;;25.50;;
21601;SDS011;10963;50.934;4.668;2022-11-30T07:26:13;86.13;;;22.40;;
21601;SDS011;10963;50.934;4.668;2022-11-30T07:28:40;101.37;;;21.90;;
21601;SDS011;10963;50.934;4.668;2022-11-30T07:31:22;111.37;;;22.43;;
21601;SDS011;10963;50.934;4.668;2022-11-30T07:33:49;170.27;;;26.77;;
21601;SDS011;10963;50.934;4.668;2022-11-30T07:36:18;89.27;;;23.23;;
21601;SDS011;10963;50.934;4.668;2022-11-30T07:38:46;132.47;;;25.67;;
21601;SDS011;10963;50.934;4.668;2022-11-30T07:41:14;125.37;;;25.87;;
21601;SDS011;10963;50.934;4.668;2022-11-30T07:43:40;145.73;;;26.40;;
21601;SDS011;10963;50.934;4.668;2022-11-30T07:46:10;125.67;;;24.63;;
21601;SDS011;10963;50.934;4.668;2022-11-30T07:48:40;146.43;;;26.03;;
21601;SDS011;10963;50.934;4.668;2022-11-30T07:51:12;150.63;;;27.60;;
21601;SDS011;10963;50.934;4.668;2022-11-30T07:53:40;138.37;;;25.87;;
21601;SDS011;10963;50.934;4.668;2022-11-30T07:56:08;128.73;;;26.77;;
21601;SDS011;10963;50.934;4.668;2022-11-30T07:58:41;135.03;;;25.13;;
21601;SDS011;10963;50.934;4.668;2022-11-30T08:01:20;124.77;;;25.57;;
21601;SDS011;10963;50.934;4.668;2022-11-30T08:03:50;111.73;;;26.03;;
21601;SDS011;10963;50.934;4.668;2022-11-30T08:06:22;138.47;;;25.67;;
21601;SDS011;10963;50.934;4.668;2022-11-30T08:08:53;122.50;;;26.43;;
21601;SDS011;10963;50.934;4.668;2022-11-30T08:11:22;119.90;;;26.37;;
21601;SDS011;10963;50.934;4.668;2022-11-30T08:13:51;141.87;;;27.90;;
21601;SDS011;10963;50.934;4.668;2022-11-30T08:16:19;172.10;;;30.73;;
21601;SDS011;10963;50.934;4.668;2022-11-30T08:18:49;86.03;;;24.27;;
21601;SDS011;10963;50.934;4.668;2022-11-30T08:21:21;84.57;;;23.43;;
21601;SDS011;10963;50.934;4.668;2022-11-30T08:23:53;73.47;;;22.73;;
21601;SDS011;10963;50.934;4.668;2022-11-30T08:26:25;74.80;;;22.27;;
21601;SDS011;10963;50.934;4.668;2022-11-30T08:28:58;70.07;;;21.40;;
21601;SDS011;10963;50.934;4.668;2022-11-30T08:31:25;72.43;;;22.23;;
21601;SDS011;10963;50.934;4.668;2022-11-30T08:33:59;107.93;;;24.97;;
21601;SDS011;10963;50.934;4.668;2022-11-30T08:36:30;72.33;;;21.53;;
21601;SDS011;10963;50.934;4.668;2022-11-30T08:38:56;92.10;;;22.67;;
21601;SDS011;10963;50.934;4.668;2022-11-30T08:41:24;62.10;;;20.20;;
21601;SDS011;10963;50.934;4.668;2022-11-30T08:43:52;77.67;;;22.47;;
21601;SDS011;10963;50.934;4.668;2022-11-30T08:46:21;76.97;;;23.37;;
21601;SDS011;10963;50.934;4.668;2022-11-30T08:48:50;73.33;;;22.07;;
21601;SDS011;10963;50.934;4.668;2022-11-30T08:51:16;83.43;;;23.00;;
21601;SDS011;10963;50.934;4.668;2022-11-30T08:53:44;68.30;;;22.13;;
21601;SDS011;10963;50.934;4.668;2022-11-30T08:56:12;97.97;;;26.43;;
21601;SDS011;10963;50.934;4.668;2022-11-30T08:58:41;67.17;;;21.47;;
21601;SDS011;10963;50.934;4.668;2022-11-30T09:03:42;81.00;;;22.87;;
21601;SDS011;10963;50.934;4.668;2022-11-30T09:06:12;69.17;;;22.77;;
21601;SDS011;10963;50.934;4.668;2022-11-30T09:08:41;77.70;;;22.57;;
21601;SDS011;10963;50.934;4.668;2022-11-30T09:13:40;86.67;;;24.27;;
21601;SDS011;10963;50.934;4.668;2022-11-30T09:16:09;71.60;;;24.20;;
21601;SDS011;10963;50.934;4.668;2022-11-30T09:18:35;69.03;;;20.83;;
21601;SDS011;10963;50.934;4.668;2022-11-30T09:21:08;62.50;;;21.70;;
21601;SDS011;10963;50.934;4.668;2022-11-30T09:23:35;61.60;;;21.20;;
21601;SDS011;10963;50.934;4.668;2022-11-30T09:26:04;62.07;;;21.53;;
21601;SDS011;10963;50.934;4.668;2022-11-30T09:28:34;53.60;;;21.60;;
21601;SDS011;10963;50.934;4.668;2022-11-30T09:31:03;60.87;;;21.63;;
21601;SDS011;10963;50.934;4.668;2022-11-30T09:33:29;64.67;;;21.23;;
21601;SDS011;10963;50.934;4.668;2022-11-30T09:35:58;70.03;;;24.57;;
21601;SDS011;10963;50.934;4.668;2022-11-30T09:38:25;57.50;;;21.67;;
21601;SDS011;10963;50.934;4.668;2022-11-30T09:40:55;60.57;;;20.67;;
21601;SDS011;10963;50.934;4.668;2022-11-30T09:43:36;53.07;;;21.67;;
21601;SDS011;10963;50.934;4.668;2022-11-30T09:46:05;52.00;;;21.37;;
21601;SDS011;10963;50.934;4.668;2022-11-30T09:51:34;56.37;;;21.90;;
21601;SDS011;10963;50.934;4.668;2022-11-30T09:54:11;55.03;;;21.83;;
21601;SDS011;10963;50.934;4.668;2022-11-30T09:56:47;62.03;;;21.93;;
21601;SDS011;10963;50.934;4.668;2022-11-30T09:59:19;62.07;;;23.77;;
21601;SDS011;10963;50.934;4.668;2022-11-30T10:01:54;64.57;;;25.07;;
21601;SDS011;10963;50.934;4.668;2022-11-30T10:04:24;67.57;;;24.97;;
21601;SDS011;10963;50.934;4.668;2022-11-30T10:07:00;71.37;;;25.40;;
21601;SDS011;10963;50.934;4.668;2022-11-30T10:09:54;71.77;;;25.63;;
21601;SDS011;10963;50.934;4.668;2022-11-30T10:12:33;69.50;;;25.97;;
21601;SDS011;10963;50.934;4.668;2022-11-30T10:15:08;70.83;;;26.00;;
21601;SDS011;10963;50.934;4.668;2022-11-30T10:18:06;63.10;;;24.00;;
21601;SDS011;10963;50.934;4.668;2022-11-30T10:20:53;55.00;;;24.57;;
21601;SDS011;10963;50.934;4.668;2022-11-30T10:26:18;58.10;;;22.57;;
21601;SDS011;10963;50.934;4.668;2022-11-30T10:29:01;57.37;;;23.10;;
21601;SDS011;10963;50.934;4.668;2022-11-30T10:31:34;58.37;;;22.73;;
21601;SDS011;10963;50.934;4.668;2022-11-30T10:34:23;60.53;;;24.03;;
21601;SDS011;10963;50.934;4.668;2022-11-30T10:39:42;55.47;;;22.20;;
21601;SDS011;10963;50.934;4.668;2022-11-30T10:42:23;51.00;;;22.30;;
21601;SDS011;10963;50.934;4.668;2022-11-30T10:45:04;61.23;;;23.27;;
21601;SDS011;10963;50.934;4.668;2022-11-30T10:47:31;60.03;;;24.40;;
21601;SDS011;10963;50.934;4.668;2022-11-30T10:50:01;50.90;;;22.67;;
21601;SDS011;10963;50.934;4.668;2022-11-30T10:52:37;61.53;;;24.07;;
21601;SDS011;10963;50.934;4.668;2022-11-30T10:58:08;59.17;;;25.27;;
21601;SDS011;10963;50.934;4.668;2022-11-30T11:01:11;55.90;;;24.00;;
21601;SDS011;10963;50.934;4.668;2022-11-30T11:06:54;55.70;;;23.23;;
21601;SDS011;10963;50.934;4.668;2022-11-30T11:09:33;53.10;;;22.27;;
21601;SDS011;10963;50.934;4.668;2022-11-30T11:12:20;52.60;;;23.73;;
21601;SDS011;10963;50.934;4.668;2022-11-30T11:15:12;56.87;;;23.00;;
21601;SDS011;10963;50.934;4.668;2022-11-30T11:17:42;56.77;;;24.20;;
21601;SDS011;10963;50.934;4.668;2022-11-30T11:20:27;57.53;;;25.60;;
21601;SDS011;10963;50.934;4.668;2022-11-30T11:22:53;61.03;;;23.57;;
21601;SDS011;10963;50.934;4.668;2022-11-30T11:25:20;60.10;;;23.17;;
21601;SDS011;10963;50.934;4.668;2022-11-30T11:27:57;55.97;;;22.97;;
21601;SDS011;10963;50.934;4.668;2022-11-30T11:30:29;57.93;;;25.20;;
21601;SDS011;10963;50.934;4.668;2022-11-30T11:33:22;61.13;;;24.87;;
21601;SDS011;10963;50.934;4.668;2022-11-30T11:35:53;65.43;;;26.50;;
21601;SDS011;10963;50.934;4.668;2022-11-30T11:38:27;62.67;;;25.57;;
21601;SDS011;10963;50.934;4.668;2022-11-30T11:46:33;59.30;;;25.07;;
21601;SDS011;10963;50.934;4.668;2022-11-30T11:49:20;54.00;;;23.90;;
21601;SDS011;10963;50.934;4.668;2022-11-30T11:51:58;60.93;;;25.93;;
21601;SDS011;10963;50.934;4.668;2022-11-30T11:54:27;62.97;;;25.40;;
21601;SDS011;10963;50.934;4.668;2022-11-30T11:57:07;57.43;;;25.80;;
21601;SDS011;10963;50.934;4.668;2022-11-30T11:59:54;62.13;;;25.60;;
21601;SDS011;10963;50.934;4.668;2022-11-30T12:05:26;61.73;;;26.47;;
21601;SDS011;10963;50.934;4.668;2022-11-30T12:08:09;60.30;;;27.03;;
21601;SDS011;10963;50.934;4.668;2022-11-30T12:10:43;60.17;;;25.87;;
21601;SDS011;10963;50.934;4.668;2022-11-30T12:13:17;62.87;;;26.67;;
21601;SDS011;10963;50.934;4.668;2022-11-30T12:18:41;57.53;;;25.43;;
21601;SDS011;10963;50.934;4.668;2022-11-30T12:21:20;56.77;;;24.47;;
21601;SDS011;10963;50.934;4.668;2022-11-30T12:29:42;60.37;;;24.80;;
21601;SDS011;10963;50.934;4.668;2022-11-30T12:40:00;55.73;;;24.37;;
21601;SDS011;10963;50.934;4.668;2022-11-30T12:42:36;55.00;;;26.53;;
21601;SDS011;10963;50.934;4.668;2022-11-30T13:06:38;53.97;;;25.10;;
21601;SDS011;10963;50.934;4.668;2022-11-30T13:09:21;51.63;;;25.67;;
21601;SDS011;10963;50.934;4.668;2022-11-30T13:12:02;50.80;;;25.50;;
21601;SDS011;10963;50.934;4.668;2022-11-30T13:14:34;57.20;;;26.53;;
21601;SDS011;10963;50.934;4.668;2022-11-30T13:17:01;44.17;;;22.10;;
21601;SDS011;10963;50.934;4.668;2022-11-30T13:28:35;49.10;;;22.33;;
21601;SDS011;10963;50.934;4.668;2022-11-30T13:30:56;47.30;;;24.63;;
21601;SDS011;10963;50.934;4.668;2022-11-30T13:36:43;54.57;;;23.87;;
21601;SDS011;10963;50.934;4.668;2022-11-30T13:41:42;50.17;;;24.47;;
21601;SDS011;10963;50.934;4.668;2022-11-30T13:44:23;51.53;;;25.57;;
21601;SDS011;10963;50.934;4.668;2022-11-30T13:47:00;47.97;;;23.27;;
21601;SDS011;10963;50.934;4.668;2022-11-30T13:49:30;49.57;;;23.10;;
21601;SDS011;10963;50.934;4.668;2022-11-30T13:52:01;49.07;;;23.00;;
21601;SDS011;10963;50.934;4.668;2022-11-30T13:54:47;46.77;;;22.60;;
21601;SDS011;10963;50.934;4.668;2022-11-30T13:58:01;51.37;;;24.03;;
21601;SDS011;10963;50.934;4.668;2022-11-30T14:05:45;47.33;;;22.50;;
21601;SDS011;10963;50.934;4.668;2022-11-30T14:08:14;55.93;;;23.90;;
21601;SDS011;10963;50.934;4.668;2022-11-30T14:13:41;56.53;;;25.00;;
21601;SDS011;10963;50.934;4.668;2022-11-30T14:16:22;46.67;;;23.07;;
21601;SDS011;10963;50.934;4.668;2022-11-30T14:18:51;52.77;;;23.43;;
21601;SDS011;10963;50.934;4.668;2022-11-30T14:21:23;46.87;;;22.73;;
21601;SDS011;10963;50.934;4.668;2022-11-30T14:26:33;56.90;;;24.63;;
21601;SDS011;10963;50.934;4.668;2022-11-30T14:31:59;54.93;;;23.97;;
21601;SDS011;10963;50.934;4.668;2022-11-30T14:34:28;47.93;;;23.17;;
21601;SDS011;10963;50.934;4.668;2022-11-30T14:37:11;53.80;;;24.07;;
21601;SDS011;10963;50.934;4.668;2022-11-30T14:39:41;50.17;;;22.97;;
21601;SDS011;10963;50.934;4.668;2022-11-30T14:42:18;47.63;;;22.20;;
21601;SDS011;10963;50.934;4.668;2022-11-30T14:44:54;55.00;;;24.47;;
21601;SDS011;10963;50.934;4.668;2022-11-30T14:47:29;57.00;;;24.83;;
21601;SDS011;10963;50.934;4.668;2022-11-30T14:49:57;49.73;;;23.67;;
21601;SDS011;10963;50.934;4.668;2022-11-30T14:52:51;55.60;;;25.33;;
21601;SDS011;10963;50.934;4.668;2022-11-30T15:00:58;61.83;;;25.37;;
21601;SDS011;10963;50.934;4.668;2022-11-30T15:03:25;60.80;;;25.17;;
21601;SDS011;10963;50.934;4.668;2022-11-30T15:05:55;60.37;;;26.37;;
21601;SDS011;10963;50.934;4.668;2022-11-30T15:08:31;67.93;;;27.17;;
21601;SDS011;10963;50.934;4.668;2022-11-30T15:11:10;63.37;;;25.27;;
21601;SDS011;10963;50.934;4.668;2022-11-30T15:13:43;61.53;;;26.20;;
21601;SDS011;10963;50.934;4.668;2022-11-30T15:16:16;62.43;;;26.57;;
21601;SDS011;10963;50.934;4.668;2022-11-30T15:18:53;57.83;;;24.90;;
21601;SDS011;10963;50.934;4.668;2022-11-30T15:21:21;56.53;;;25.23;;
21601;SDS011;10963;50.934;4.668;2022-11-30T15:23:48;57.40;;;24.07;;
21601;SDS011;10963;50.934;4.668;2022-11-30T15:26:46;57.87;;;25.37;;
21601;SDS011;10963;50.934;4.668;2022-11-30T15:29:20;59.97;;;25.03;;
21601;SDS011;10963;50.934;4.668;2022-11-30T15:31:54;57.50;;;25.33;;
21601;SDS011;10963;50.934;4.668;2022-11-30T15:37:29;61.97;;;26.07;;
21601;SDS011;10963;50.934;4.668;2022-11-30T15:39:58;57.93;;;24.60;;
21601;SDS011;10963;50.934;4.668;2022-11-30T15:42:34;63.53;;;25.57;;
21601;SDS011;10963;50.934;4.668;2022-11-30T15:45:28;62.67;;;26.23;;
21601;SDS011;10963;50.934;4.668;2022-11-30T15:47:59;58.70;;;24.03;;
21601;SDS011;10963;50.934;4.668;2022-11-30T15:52:57;55.77;;;23.87;;
21601;SDS011;10963;50.934;4.668;2022-11-30T15:55:44;63.57;;;25.70;;
21601;SDS011;10963;50.934;4.668;2022-11-30T16:01:09;68.07;;;26.77;;
21601;SDS011;10963;50.934;4.668;2022-11-30T16:08:51;79.23;;;31.10;;
21601;SDS011;10963;50.934;4.668;2022-11-30T16:11:28;73.10;;;30.67;;
21601;SDS011;10963;50.934;4.668;2022-11-30T16:13:54;76.90;;;32.97;;
21601;SDS011;10963;50.934;4.668;2022-11-30T16:16:23;69.20;;;29.93;;
21601;SDS011;10963;50.934;4.668;2022-11-30T16:18:54;74.13;;;31.07;;
21601;SDS011;10963;50.934;4.668;2022-11-30T16:21:22;66.20;;;29.73;;
21601;SDS011;10963;50.934;4.668;2022-11-30T16:23:48;73.77;;;28.87;;
21601;SDS011;10963;50.934;4.668;2022-11-30T16:26:16;68.43;;;28.20;;
21601;SDS011;10963;50.934;4.668;2022-11-30T16:28:45;64.47;;;25.30;;
21601;SDS011;10963;50.934;4.668;2022-11-30T16:31:13;60.07;;;26.67;;
21601;SDS011;10963;50.934;4.668;2022-11-30T16:33:43;59.20;;;25.40;;
21601;SDS011;10963;50.934;4.668;2022-11-30T16:36:14;55.73;;;23.90;;
21601;SDS011;10963;50.934;4.668;2022-11-30T16:38:44;69.97;;;29.23;;
21601;SDS011;10963;50.934;4.668;2022-11-30T16:41:21;66.27;;;29.03;;
21601;SDS011;10963;50.934;4.668;2022-11-30T16:43:52;78.80;;;31.63;;
21601;SDS011;10963;50.934;4.668;2022-11-30T16:46:23;71.40;;;30.97;;
21601;SDS011;10963;50.934;4.668;2022-11-30T16:48:53;78.43;;;30.93;;
21601;SDS011;10963;50.934;4.668;2022-11-30T16:51:24;72.03;;;30.70;;
21601;SDS011;10963;50.934;4.668;2022-11-30T16:53:55;69.80;;;30.97;;
21601;SDS011;10963;50.934;4.668;2022-11-30T16:56:21;78.77;;;31.63;;
21601;SDS011;10963;50.934;4.668;2022-11-30T16:58:52;71.23;;;30.77;;
21601;SDS011;10963;50.934;4.668;2022-11-30T17:01:21;76.70;;;31.20;;